Data for 12/03/2015

Time Sea-Level Adjusted Pressure Absolute Pressure Temperature Relative Humidity Dew Point   
(mb) (inHg) (mb) (inHg) (C) (F) (%) (C) (F)
00:05 1024 30.24 853 25.19 -2.1 28.1 70 -6.9 19.5
00:10 1024 30.24 853 25.19 -2 28.4 70 -6.8 19.7
00:15 1024 30.24 853 25.19 -2.1 28.3 69 -7 19.5
00:20 1024 30.24 853 25.19 -2.2 28 67 -7.6 18.3
00:25 1024 30.24 853 25.19 -2.1 28.2 68 -7.2 19.1
00:30 1024 30.24 853 25.19 -2.1 28.2 68 -7.3 18.9
00:35 1024 30.24 853 25.19 -2 28.5 69 -6.9 19.5
00:40 1024 30.24 854 25.22 -2 28.4 71 -6.5 20.3
00:45 1024 30.24 854 25.22 -2.2 28.1 72 -6.5 20.3
00:50 1024 30.24 854 25.22 -2.3 27.9 73 -6.5 20.4
00:55 1024 30.24 854 25.22 -2.4 27.7 73 -6.5 20.3
01:00 1024 30.24 854 25.22 -2.5 27.5 74 -6.5 20.4
01:05 1024 30.24 854 25.22 -2.5 27.4 75 -6.4 20.4
01:10 1024 30.24 854 25.22 -2.6 27.3 73 -6.8 19.8
01:15 1024 30.24 854 25.22 -3 26.7 71 -7.6 18.4
01:20 1024 30.24 854 25.22 -3.1 26.4 72 -7.4 18.6
01:25 1024 30.24 854 25.22 -3.3 26 75 -7.2 19.1
01:30 1024 30.24 854 25.22 -3.6 25.5 78 -6.8 19.7
01:35 1024 30.24 854 25.22 -3.8 25.1 76 -7.4 18.6
01:40 1024 30.24 854 25.22 -3.4 25.9 74 -7.3 18.8
01:45 1024 30.24 853 25.19 -3.3 26.1 75 -7.2 19.1
01:50 1024 30.24 853 25.19 -3.4 25.9 75 -7.1 19.2
01:55 1024 30.24 853 25.19 -3.7 25.3 79 -6.9 19.6
02:00 1024 30.24 853 25.19 -4.1 24.6 81 -6.9 19.5
02:05 1024 30.24 853 25.19 -4.3 24.3 81 -7.1 19.3
02:10 1024 30.24 853 25.19 -4.3 24.3 80 -7.2 19
02:15 1024 30.24 853 25.19 -4.1 24.6 77 -7.5 18.5
02:20 1024 30.24 853 25.19 -3.6 25.4 74 -7.6 18.3
02:25 1024 30.24 853 25.19 -3.5 25.6 74 -7.5 18.5
02:30 1024 30.24 853 25.19 -3.5 25.7 74 -7.5 18.4
02:35 1024 30.24 853 25.19 -3.7 25.4 74 -7.6 18.3
02:40 1024 30.24 853 25.19 -3.7 25.3 72 -8.1 17.5
02:45 1024 30.24 853 25.19 -3.6 25.5 72 -8 17.7
02:50 1024 30.24 853 25.19 -3.6 25.6 72 -7.9 17.8
02:55 1024 30.24 853 25.19 -3.5 25.8 71 -7.9 17.7
03:00 1024 30.24 853 25.19 -3.4 25.9 72 -7.7 18.2
03:05 1024 30.24 853 25.19 -3.9 25.1 74 -7.8 18
03:10 1023 30.21 853 25.19 -4.1 24.7 75 -7.9 17.7
03:15 1023 30.21 853 25.19 -4 24.8 75 -7.9 17.9
03:20 1023 30.21 853 25.19 -4 24.8 74 -7.9 17.8
03:25 1023 30.21 852 25.16 -4.1 24.7 74 -8 17.7
03:30 1023 30.21 852 25.16 -3.8 25.2 73 -7.9 17.9
03:35 1023 30.21 852 25.16 -3.9 25 74 -7.9 17.8
03:40 1023 30.21 852 25.16 -4.3 24.3 74 -8.2 17.2
03:45 1023 30.21 852 25.16 -4 24.8 72 -8.3 17.1
03:50 1023 30.21 852 25.16 -3.7 25.4 71 -8.2 17.2
03:55 1023 30.21 852 25.16 -3.3 26 70 -8.1 17.4
04:00 1023 30.21 852 25.16 -3.1 26.4 69 -8.1 17.4
04:05 1023 30.21 852 25.16 -3.3 26.1 69 -8.1 17.3
04:10 1023 30.21 852 25.16 -3.5 25.8 70 -8.2 17.2
04:15 1023 30.21 852 25.16 -3.6 25.5 70 -8.3 17.1
04:20 1023 30.21 852 25.16 -3.7 25.4 70 -8.3 17
04:25 1023 30.21 852 25.16 -3.6 25.5 70 -8.3 17.1
04:30 1023 30.21 852 25.16 -3.5 25.7 70 -8.1 17.4
04:35 1023 30.21 852 25.16 -3.2 26.2 68 -8.3 17.1
04:40 1023 30.21 852 25.16 -3.1 26.4 68 -8.2 17.3
04:45 1023 30.21 852 25.16 -3.1 26.4 68 -8.2 17.2
04:50 1023 30.21 852 25.16 -3.1 26.5 68 -8.1 17.4
04:55 1023 30.21 852 25.16 -3.6 25.6 70 -8.2 17.2
05:00 1023 30.21 852 25.16 -4.1 24.7 72 -8.3 17
05:05 1023 30.21 852 25.16 -4.2 24.4 73 -8.3 17.1
05:10 1023 30.21 852 25.16 -4.2 24.4 73 -8.4 16.9
05:15 1022 30.18 852 25.16 -4.4 24 74 -8.5 16.7
05:20 1022 30.18 852 25.16 -4.6 23.7 75 -8.4 16.9
05:25 1022 30.18 852 25.16 -4.4 24.1 72 -8.6 16.5
05:30 1022 30.18 852 25.16 -4.2 24.4 72 -8.5 16.7
05:35 1022 30.18 852 25.16 -4.3 24.3 73 -8.5 16.7
05:40 1022 30.18 851 25.13 -4.5 23.9 74 -8.5 16.7
05:45 1022 30.18 851 25.13 -4.7 23.5 73 -8.9 16
05:50 1022 30.18 851 25.13 -5.4 22.3 77 -8.9 16
05:55 1022 30.18 851 25.13 -5.6 21.9 77 -9.1 15.7
06:00 1022 30.18 852 25.16 -5.3 22.4 76 -9 15.8
06:05 1022 30.18 852 25.16 -5.3 22.5 76 -8.8 16.2
06:10 1022 30.18 852 25.16 -4.8 23.4 75 -8.5 16.6
06:15 1022 30.18 852 25.16 -4.4 24.1 73 -8.5 16.7
06:20 1022 30.18 852 25.16 -4.2 24.4 73 -8.4 16.8
06:25 1023 30.21 852 25.16 -4.9 23.2 75 -8.7 16.4
06:30 1022 30.18 852 25.16 -6.9 19.6 82 -9.4 15.1
06:35 1022 30.18 852 25.16 -6.6 20.1 82 -9.2 15.4
06:40 1022 30.18 852 25.16 -5.9 21.4 79 -9 15.8
06:45 1022 30.18 852 25.16 -5.7 21.7 79 -8.9 16.1
06:50 1022 30.18 851 25.13 -5.8 21.6 80 -8.7 16.3
06:55 1022 30.18 851 25.13 -5.8 21.5 81 -8.6 16.5
07:00 1022 30.18 851 25.13 -5.7 21.8 78 -9 15.9
07:05 1022 30.18 851 25.13 -5.6 22 78 -8.7 16.3
07:10 1022 30.18 851 25.13 -5 23 75 -8.8 16.2
07:15 1022 30.18 851 25.13 -5.3 22.5 78 -8.6 16.6
07:20 1022 30.18 851 25.13 -5.7 21.8 78 -8.9 16
07:25 1022 30.18 851 25.13 -5.9 21.4 78 -9.1 15.7
07:30 1022 30.18 851 25.13 -5.6 22 77 -8.9 15.9
07:35 1022 30.18 851 25.13 -5.8 21.6 78 -8.9 15.9
07:40 1022 30.18 851 25.13 -5.8 21.5 78 -9.1 15.6
07:45 1022 30.18 851 25.13 -5.6 21.9 76 -9.1 15.6
07:50 1022 30.18 851 25.13 -5.7 21.7 77 -9.1 15.6
07:55 1022 30.18 851 25.13 -5.8 21.5 75 -9.6 14.8
08:00 1022 30.18 851 25.13 -6.3 20.7 77 -9.6 14.6
08:05 1022 30.18 851 25.13 -5.8 21.5 76 -9.5 15
08:10 1022 30.18 851 25.13 -5.2 22.6 75 -9 15.7
08:15 1022 30.18 851 25.13 -5.3 22.4 72 -9.5 14.8
08:20 1022 30.18 851 25.13 -6 21.2 76 -9.6 14.8
08:25 1022 30.18 851 25.13 -6.7 19.9 81 -9.4 15
08:30 1022 30.18 851 25.13 -5.9 21.4 76 -9.5 14.9
08:35 1022 30.18 851 25.13 -5.9 21.3 74 -9.9 14.2
08:40 1022 30.18 851 25.13 -6.7 19.9 78 -9.9 14.1
08:45 1022 30.18 851 25.13 -6.4 20.5 74 -10.3 13.4
08:50 1022 30.18 852 25.16 -6.8 19.8 77 -10.2 13.6
08:55 1022 30.18 852 25.16 -7 19.4 78 -10.2 13.6
09:00 1022 30.18 852 25.16 -6.7 20 78 -9.9 14.1
09:05 1022 30.18 852 25.16 -6.5 20.2 76 -10.1 13.8
09:10 1022 30.18 852 25.16 -6.6 20.1 77 -10.1 13.9
09:15 1022 30.18 852 25.16 -5.8 21.6 71 -10.3 13.5
09:20 1022 30.18 852 25.16 -5.2 22.6 69 -10 14
09:25 1022 30.18 852 25.16 -5.2 22.7 69 -10 14.1
09:30 1022 30.18 852 25.16 -5.2 22.6 69 -10 14
09:35 1022 30.18 852 25.16 -5.6 21.9 68 -10.5 13
09:40 1022 30.18 852 25.16 -6.2 20.8 72 -10.6 13
09:45 1022 30.18 852 25.16 -6.5 20.3 73 -10.6 12.9
09:50 1022 30.18 852 25.16 -6.8 19.8 74 -10.6 12.9
09:55 1022 30.18 852 25.16 -6.7 20 76 -10.2 13.7
10:00 1022 30.18 852 25.16 -6.2 20.9 75 -9.9 14.1
10:05 1022 30.18 851 25.13 -6 21.2 74 -9.9 14.2
10:10 1022 30.18 851 25.13 -5.7 21.7 74 -9.7 14.5
10:15 1022 30.18 851 25.13 -5.4 22.3 73 -9.5 15
10:20 1022 30.18 851 25.13 -4.9 23.3 72 -9.2 15.4
10:25 1022 30.18 851 25.13 -4.3 24.3 70 -8.9 16
10:30 1022 30.18 851 25.13 -3.8 25.1 68 -8.9 16.1
10:35 1022 30.18 851 25.13 -3.8 25.2 67 -9 15.8
10:40 1022 30.18 851 25.13 -3.7 25.3 67 -9 15.8
10:45 1021 30.15 851 25.13 -3 26.5 65 -8.8 16.2
10:50 1021 30.15 850 25.1 -2.2 28 61 -8.7 16.4
10:55 1021 30.15 850 25.1 -1.5 29.2 60 -8.4 16.9
11:00 1021 30.15 850 25.1 -1.4 29.5 58 -8.6 16.5
11:05 1021 30.15 850 25.1 -0.9 30.4 57 -8.4 16.9
11:10 1021 30.15 850 25.1 -0.4 31.2 56 -8.3 17.1
11:15 1021 30.15 850 25.1 0.1 32.2 53 -8.3 17.1
11:20 1021 30.15 850 25.1 0.8 33.4 52 -8.1 17.5
11:25 1021 30.15 850 25.1 1.4 34.5 50 -8 17.5
11:30 1020 30.12 850 25.1 1.5 34.8 48 -8.2 17.2
11:35 1021 30.15 850 25.1 1.5 34.7 48 -8.3 17
11:40 1021 30.15 850 25.1 2 35.5 46 -8.4 17
11:45 1020 30.12 850 25.1 2.3 36.1 46 -8.1 17.5
11:50 1020 30.12 850 25.1 0 32 60 -6.8 19.8
11:55 1021 30.15 850 25.1 -2.2 28 67 -7.6 18.3
12:00 1020 30.12 850 25.1 -2.6 27.4 65 -8.4 17
12:05 1020 30.12 850 25.1 -2.4 27.7 63 -8.4 16.8
12:10 1020 30.12 850 25.1 -3.1 26.5 66 -8.5 16.8
12:15 1021 30.15 850 25.1 -2.9 26.8 64 -8.9 16.1
12:20 1021 30.15 850 25.1 -2.6 27.3 64 -8.5 16.7
12:25 1021 30.15 850 25.1 -2.5 27.5 62 -8.8 16.1
12:30 1021 30.15 850 25.1 -2.2 28.1 62 -8.6 16.5
12:35 1021 30.15 850 25.1 -1.6 29.2 59 -8.5 16.6
12:40 1021 30.15 850 25.1 -1.6 29.2 61 -8.2 17.3
12:45 1021 30.15 850 25.1 -1.4 29.4 60 -8.2 17.2
12:50 1021 30.15 850 25.1 -1.2 29.9 60 -8.1 17.4
12:55 1020 30.12 850 25.1 -1.4 29.5 60 -8.2 17.3
13:00 1020 30.12 849 25.07 -1 30.1 58 -8.2 17.3
13:05 1020 30.12 849 25.07 -0.8 30.6 58 -8.1 17.4
13:10 1020 30.12 849 25.07 -0.6 30.9 58 -7.8 18
13:15 1020 30.12 849 25.07 -0.4 31.2 56 -8.1 17.5
13:20 1020 30.12 849 25.07 -0.7 30.7 58 -8 17.6
13:25 1020 30.12 849 25.07 -0.9 30.5 58 -8.2 17.3
13:30 1019 30.09 849 25.07 -0.3 31.4 54 -8.5 16.7
13:35 1019 30.09 848 25.04 -0.1 31.9 54 -8.2 17.2
13:40 1019 30.09 848 25.04 -0.1 31.9 55 -8.1 17.4
13:45 1019 30.09 848 25.04 0.1 32.1 53 -8.4 16.9
13:50 1019 30.09 848 25.04 0.1 32.3 55 -8 17.7
13:55 1019 30.09 848 25.04 -0.3 31.5 56 -8 17.5
14:00 1019 30.09 848 25.04 0.2 32.4 52 -8.5 16.7
14:05 1018 30.06 848 25.04 0.2 32.4 54 -7.9 17.8
14:10 1018 30.06 848 25.04 0.2 32.3 55 -7.9 17.8
14:15 1018 30.06 848 25.04 0.9 33.5 51 -8.1 17.5
14:20 1019 30.09 848 25.04 1.5 34.7 50 -7.9 17.8
14:25 1019 30.09 848 25.04 1.3 34.3 52 -7.5 18.5
14:30 1018 30.06 848 25.04 1.8 35.3 48 -7.9 17.7
14:35 1019 30.09 848 25.04 2.2 35.9 49 -7.6 18.4
14:40 1019 30.09 848 25.04 2.4 36.3 47 -7.9 17.7
14:45 1019 30.09 848 25.04 2.1 35.8 50 -7.4 18.8
14:50 1019 30.09 848 25.04 2.4 36.3 47 -7.7 18.1
14:55 1018 30.06 848 25.04 1.7 35 50 -7.7 18.2
15:00 1018 30.06 848 25.04 1.3 34.4 51 -7.8 17.9
15:05 1018 30.06 847 25.01 1.5 34.8 51 -7.6 18.3
15:10 1018 30.06 847 25.01 1.3 34.4 50 -7.9 17.7
15:15 1018 30.06 847 25.01 1.1 34.1 51 -8 17.6
15:20 1018 30.06 847 25.01 1 33.9 51 -7.9 17.7
15:25 1018 30.06 847 25.01 1.2 34.1 50 -8.1 17.4
15:30 1018 30.06 847 25.01 1.3 34.3 50 -8.1 17.4
15:35 1018 30.06 847 25.01 1.2 34.1 51 -7.8 18
15:40 1018 30.06 847 25.01 1.3 34.3 50 -8 17.6
15:45 1018 30.06 847 25.01 1.3 34.4 50 -7.9 17.7
15:50 1018 30.06 847 25.01 1.6 34.8 49 -7.9 17.7
15:55 1017 30.03 846 24.98 1.3 34.4 50 -7.9 17.8
16:00 1017 30.03 846 24.98 1.4 34.5 51 -7.6 18.3
16:05 1017 30.03 846 24.98 1.6 34.8 50 -7.9 17.8
16:10 1017 30.03 846 24.98 1.4 34.5 51 -7.8 18
16:15 1017 30.03 846 24.98 1.3 34.3 52 -7.6 18.4
16:20 1017 30.03 846 24.98 1 33.8 53 -7.4 18.7
16:25 1017 30.03 846 24.98 0.9 33.7 53 -7.6 18.3
16:30 1017 30.03 846 24.98 0.9 33.7 53 -7.5 18.4
16:35 1017 30.03 846 24.98 0.9 33.6 53 -7.7 18.2
16:40 1017 30.03 846 24.98 1.1 34 52 -7.6 18.3
16:45 1017 30.03 846 24.98 1.4 34.5 52 -7.5 18.5
16:50 1017 30.03 846 24.98 1.5 34.7 52 -7.2 19
16:55 1017 30.03 846 24.98 1.4 34.5 53 -7.1 19.3
17:00 1017 30.03 846 24.98 1.3 34.3 55 -6.8 19.8
17:05 1017 30.03 846 24.98 1 33.8 57 -6.7 20
17:10 1017 30.03 846 24.98 0.5 32.9 59 -6.6 20.2
17:15 1017 30.03 846 24.98 0.3 32.6 60 -6.6 20.2
17:20 1017 30.03 846 24.98 0 32 61 -6.6 20.2
17:25 1017 30.03 846 24.98 -0.4 31.3 62 -6.8 19.8
17:30 1016 30 846 24.98 -0.5 31.1 63 -6.8 19.8
17:35 1016 30 846 24.98 -0.6 31 62 -7.1 19.3
17:40 1016 30 846 24.98 -0.5 31 61 -7.2 19
17:45 1016 30 846 24.98 -0.5 31.1 60 -7.3 18.9
17:50 1016 30 846 24.98 -0.6 31 61 -7.3 18.9
17:55 1016 30 845 24.95 -0.5 31.1 61 -7.1 19.2
18:00 1016 30 845 24.95 -0.4 31.3 61 -6.9 19.5
18:05 1016 30 845 24.95 -0.6 31 63 -6.7 19.9
18:10 1016 30 845 24.95 -0.7 30.7 62 -7 19.3
18:15 1016 30 845 24.95 -0.5 31.1 59 -7.5 18.4
18:20 1016 30 845 24.95 -0.1 31.8 59 -7.3 18.9
18:25 1016 30 845 24.95 -0.1 31.8 60 -7.1 19.3
18:30 1016 30 845 24.95 -0.1 31.9 60 -6.9 19.6
18:35 1016 30 845 24.95 -0.1 31.8 59 -7.1 19.3
18:40 1016 30 845 24.95 -0.3 31.4 61 -6.9 19.6
18:45 1016 30 845 24.95 -0.4 31.3 61 -7 19.3
18:50 1016 30 845 24.95 -0.4 31.2 61 -7.1 19.2
18:55 1016 30 845 24.95 -0.5 31.2 61 -7 19.3
19:00 1016 30 845 24.95 -0.5 31.1 62 -6.9 19.5
19:05 1016 30 845 24.95 -0.5 31.2 61 -7 19.4
19:10 1016 30 845 24.95 -0.3 31.4 59 -7.3 18.9
19:15 1016 30 845 24.95 -0.2 31.7 60 -7 19.4
19:20 1016 30 845 24.95 -0.2 31.6 59 -7.2 19.1
19:25 1016 30 845 24.95 -0.1 31.9 59 -7.2 19.1
19:30 1016 30 845 24.95 0.1 32.2 58 -7.2 19
19:35 1016 30 845 24.95 0.2 32.3 59 -7 19.3
19:40 1016 30 845 24.95 0.1 32.2 57 -7.4 18.7
19:45 1015 29.97 845 24.95 0.6 33 55 -7.4 18.7
19:50 1015 29.97 845 24.95 1 33.7 54 -7.3 18.8
19:55 1015 29.97 845 24.95 1 33.9 54 -7.3 18.8
20:00 1015 29.97 845 24.95 1.1 34 53 -7.3 18.8
20:05 1015 29.97 844 24.92 1 33.8 56 -6.8 19.8
20:10 1015 29.97 844 24.92 0.5 32.9 58 -6.9 19.6
20:15 1015 29.97 844 24.92 0.4 32.8 57 -7 19.3
20:20 1015 29.97 844 24.92 0.7 33.3 54 -7.6 18.3
20:25 1015 29.97 844 24.92 1.1 34.1 53 -7.3 18.8
20:30 1015 29.97 844 24.92 1.4 34.5 52 -7.3 18.8
20:35 1015 29.97 844 24.92 1.4 34.5 53 -7.2 19
20:40 1015 29.97 844 24.92 1.4 34.5 52 -7.3 18.8
20:45 1015 29.97 844 24.92 1.5 34.7 52 -7.4 18.7
20:50 1015 29.97 844 24.92 1.4 34.5 54 -6.9 19.5
20:55 1015 29.97 844 24.92 1.4 34.6 53 -7.2 19.1
21:00 1015 29.97 844 24.92 1.2 34.1 55 -6.9 19.6
21:05 1015 29.97 844 24.92 1 33.8 54 -7.2 19
21:10 1015 29.97 844 24.92 1.1 33.9 56 -6.8 19.8
21:15 1015 29.97 844 24.92 1.1 34 57 -6.6 20.2
21:20 1014 29.94 844 24.92 1.1 33.9 54 -7.2 19
21:25 1014 29.94 843 24.89 1.2 34.2 55 -6.9 19.6
21:30 1014 29.94 843 24.89 1.1 33.9 56 -6.8 19.7
21:35 1014 29.94 843 24.89 1 33.8 58 -6.4 20.4
21:40 1014 29.94 843 24.89 0.5 32.9 58 -6.9 19.7
21:45 1014 29.94 843 24.89 0.7 33.3 56 -7.1 19.3
21:50 1014 29.94 843 24.89 1 33.7 58 -6.4 20.5
21:55 1014 29.94 843 24.89 0.6 33.1 60 -6.3 20.7
22:00 1014 29.94 843 24.89 0.6 33 57 -7.1 19.3
22:05 1014 29.94 843 24.89 0.9 33.6 57 -6.8 19.8
22:10 1014 29.94 843 24.89 1.2 34.2 55 -6.8 19.8
22:15 1014 29.94 843 24.89 1.2 34.1 59 -6 21.2
22:20 1014 29.94 843 24.89 1.2 34.2 56 -6.6 20.2
22:25 1014 29.94 843 24.89 0.8 33.5 61 -5.8 21.6
22:30 1014 29.94 843 24.89 -0 31.9 65 -5.8 21.5
22:35 1014 29.94 843 24.89 -0.2 31.7 61 -6.8 19.7
22:40 1014 29.94 843 24.89 0.9 33.6 59 -6.2 20.8
22:45 1013 29.91 843 24.89 1.2 34.2 54 -7 19.3
22:50 1013 29.91 843 24.89 1.6 34.8 56 -6.2 20.8
22:55 1013 29.91 842 24.86 1.3 34.3 55 -6.7 20
23:00 1013 29.91 842 24.86 1.8 35.3 49 -7.9 17.8
23:05 1013 29.91 842 24.86 2.4 36.2 49 -7.3 18.9
23:10 1013 29.91 842 24.86 2.4 36.2 50 -6.9 19.6
23:15 1013 29.91 842 24.86 2.4 36.2 49 -7.3 18.8
23:20 1013 29.91 842 24.86 2.5 36.6 50 -7 19.5
23:25 1012 29.88 842 24.86 2.5 36.6 49 -7.1 19.2
23:30 1012 29.88 841 24.83 2.9 37.3 46 -7.5 18.5
23:35 1012 29.88 841 24.83 3.4 38.1 46 -7.2 19.1
23:40 1012 29.88 841 24.83 3.8 38.9 42 -8 17.5
23:45 1012 29.88 841 24.83 4.2 39.5 44 -6.9 19.5
23:50 1012 29.88 841 24.83 4 39.3 45 -6.8 19.7
23:55 1012 29.88 841 24.83 4.3 39.7 46 -6.4 20.5
24:00 1012 29.88 841 24.83 4.9 40.8 44 -6.3 20.6